Time;durP1;ratioP1;P1;durP2;ratioP2;P2;SDS_P1;SDS_P2;PMS_P1;PMS_P2;Temp;Humidity;BMP_temperature;BMP_pressure;BME280_temperature;BME280_humidity;BME280_pressure;Samples;Min_cycle;Max_cycle;Signal;HPM_P1;HPM_P2
2023/01/10 00:00:37;;;;;;;0.20;0.20;;;;;;;4.60;100.00;98718.50;6012428;23;20011;-91
2023/01/10 00:03:04;;;;;;;0.20;0.20;;;;;;;4.55;100.00;98705.28;6034924;23;20011;-91
2023/01/10 00:05:30;;;;;;;0.10;0.10;;;;;;;4.65;100.00;98720.72;6012037;23;20098;-91
2023/01/10 00:07:57;;;;;;;0.13;0.13;;;;;;;4.49;100.00;98701.50;6035071;23;20014;-91
2023/01/10 00:10:24;;;;;;;0.10;0.10;;;;;;;4.59;100.00;98716.97;6012234;23;20027;-91
2023/01/10 00:15:34;;;;;;;0.13;0.13;;;;;;;4.53;100.00;98702.19;6039611;23;20023;-92
2023/01/10 00:18:00;;;;;;;0.38;0.38;;;;;;;4.49;100.00;98693.25;6034950;23;20003;-92
2023/01/10 00:20:25;;;;;;;0.00;0.00;;;;;;;4.53;100.00;98717.91;6011246;23;20011;-91
2023/01/10 00:22:51;;;;;;;0.10;0.10;;;;;;;4.56;100.00;98701.34;6035593;23;20019;-94
2023/01/10 00:25:20;;;;;;;0.03;0.03;;;;;;;4.49;100.00;98711.72;6035784;23;20037;-92
2023/01/10 00:27:54;;;;;;;0.05;0.05;;;;;;;4.60;100.00;98736.97;6035698;23;20491;-90
2023/01/10 00:30:19;;;;;;;0.00;0.00;;;;;;;4.63;100.00;98734.13;6013181;23;20297;-92
2023/01/10 00:32:45;;;;;;;0.00;0.00;;;;;;;4.61;100.00;98733.75;6034641;23;20231;-91
2023/01/10 00:35:11;;;;;;;0.00;0.00;;;;;;;4.47;100.00;98714.88;6034992;23;20382;-91
2023/01/10 00:37:38;;;;;;;0.20;0.20;;;;;;;4.43;100.00;98714.19;6059677;23;20015;-92
2023/01/10 00:40:08;;;;;;;0.85;0.57;;;;;;;4.59;100.00;98741.66;6034656;23;20022;-93
2023/01/10 00:45:19;;;;;;;0.00;0.00;;;;;;;4.56;100.00;98734.28;6035769;23;20034;-92
2023/01/10 00:47:45;;;;;;;0.00;0.00;;;;;;;4.50;100.00;98744.22;6011106;23;20007;-91
2023/01/10 00:50:10;;;;;;;0.20;0.20;;;;;;;4.41;100.00;98715.84;6010837;23;20440;-90
2023/01/10 00:52:36;;;;;;;0.00;0.00;;;;;;;4.57;100.00;98757.78;6033799;23;20011;-92
2023/01/10 00:55:03;;;;;;;0.20;0.20;;;;;;;4.43;100.00;98730.66;6035654;23;20065;-92
2023/01/10 00:57:28;;;;;;;0.32;0.20;;;;;;;4.37;100.00;98718.63;6011927;23;20036;-91
2023/01/10 00:59:54;;;;;;;1.23;0.28;;;;;;;4.54;100.00;98753.16;6011465;23;20043;-91
2023/01/10 01:02:19;;;;;;;0.00;0.00;;;;;;;4.43;100.00;98744.41;6036011;23;20516;-93
2023/01/10 01:04:45;;;;;;;0.00;0.00;;;;;;;4.42;100.00;98740.09;5988271;23;20019;-93
2023/01/10 01:07:10;;;;;;;0.05;0.05;;;;;;;4.48;100.00;98743.13;6010752;23;20472;-92
2023/01/10 01:10:25;;;;;;;0.30;0.30;;;;;;;4.51;100.00;98751.28;6034320;23;20019;-93
2023/01/10 01:12:21;;;;;;;1.35;0.57;;;;;;;4.51;100.00;98753.25;6033787;23;20468;-93
2023/01/10 01:14:47;;;;;;;0.50;0.50;;;;;;;4.44;100.00;98737.72;6009193;23;20011;-91
2023/01/10 01:17:12;;;;;;;0.13;0.13;;;;;;;4.50;100.00;98763.44;6009437;23;20015;-93
2023/01/10 01:19:38;;;;;;;0.00;0.00;;;;;;;4.41;100.00;98748.78;6034313;23;20011;-93
2023/01/10 01:22:04;;;;;;;0.20;0.20;;;;;;;4.47;100.00;98772.53;6034923;23;20042;-91
2023/01/10 01:24:29;;;;;;;0.77;0.70;;;;;;;4.48;100.00;98776.84;6011630;23;20007;-93
2023/01/10 01:26:55;;;;;;;0.10;0.10;;;;;;;4.41;100.00;98771.50;6010074;23;20487;-93
2023/01/10 01:29:20;;;;;;;0.00;0.00;;;;;;;4.47;100.00;98774.53;6007677;23;20095;-94
2023/01/10 01:31:46;;;;;;;0.10;0.10;;;;;;;4.41;100.00;98771.50;5986084;23;20086;-93
2023/01/10 01:34:12;;;;;;;0.00;0.00;;;;;;;4.47;100.00;98778.03;5985713;23;20015;-93
2023/01/10 01:36:37;;;;;;;0.03;0.03;;;;;;;4.42;100.00;98775.00;5986401;23;20027;-92
2023/01/10 01:39:05;;;;;;;0.20;0.20;;;;;;;4.47;100.00;98771.78;5987041;23;20015;-93
2023/01/10 01:44:17;;;;;;;0.00;0.00;;;;;;;4.42;100.00;98764.81;6013026;23;20022;-92
2023/01/10 01:46:47;;;;;;;0.40;0.40;;;;;;;4.34;100.00;98755.19;5986394;23;20018;-94
2023/01/10 01:49:17;;;;;;;0.00;0.00;;;;;;;4.39;100.00;98765.66;6032785;23;20658;-91
2023/01/10 01:51:44;;;;;;;0.17;0.17;;;;;;;4.33;100.00;98759.13;6033842;23;20025;-92
2023/01/10 01:54:11;;;;;;;0.00;0.00;;;;;;;4.40;100.00;98771.94;6033416;23;20023;-92
2023/01/10 01:56:38;;;;;;;0.17;0.15;;;;;;;4.46;100.00;98790.22;6008051;23;20023;-91
2023/01/10 01:59:15;;;;;;;0.55;0.32;;;;;;;4.44;100.00;98787.13;6033355;23;20342;-91
2023/01/10 02:01:50;;;;;;;0.32;0.30;;;;;;;3.98;100.00;98713.25;6001504;23;20102;-93
2023/01/10 02:04:19;;;;;;;0.00;0.00;;;;;;;4.37;100.00;98764.56;6060096;23;20105;-89
2023/01/10 02:06:46;;;;;;;0.20;0.20;;;;;;;4.46;100.00;98781.97;6034536;23;20026;-89
2023/01/10 02:09:36;;;;;;;0.28;0.28;;;;;;;4.32;100.00;98765.84;6014484;23;20046;-89
2023/01/10 02:12:02;;;;;;;0.10;0.10;;;;;;;4.46;100.00;98789.44;6037716;23;20074;-89
2023/01/10 02:14:30;;;;;;;0.15;0.15;;;;;;;4.35;100.00;98792.44;6014225;23;20006;-89
2023/01/10 02:16:57;;;;;;;0.00;0.00;;;;;;;4.24;100.00;98756.22;6039070;23;20367;-89
2023/01/10 02:19:40;;;;;;;0.20;0.20;;;;;;;4.42;100.00;98792.25;6036997;23;20033;-90
2023/01/10 02:22:43;;;;;;;0.20;0.20;;;;;;;4.42;100.00;98794.22;6061933;23;20015;-90
2023/01/10 02:25:36;;;;;;;0.10;0.10;;;;;;;4.43;100.00;98796.56;6037647;23;20026;-89
2023/01/10 02:28:52;;;;;;;0.30;0.30;;;;;;;4.41;100.00;98814.66;6063877;23;20027;-89
2023/01/10 02:31:25;;;;;;;0.00;0.00;;;;;;;4.39;100.00;98795.88;6030771;23;20427;-90
2023/01/10 02:33:57;;;;;;;0.00;0.00;;;;;;;4.39;100.00;98797.84;6051661;23;20456;-90
2023/01/10 02:36:42;;;;;;;0.10;0.10;;;;;;;4.39;100.00;98811.56;6063488;23;20106;-89
2023/01/10 02:39:35;;;;;;;0.73;0.32;;;;;;;4.43;100.00;98812.25;6050205;23;20443;-91
2023/01/10 02:42:06;;;;;;;0.00;0.00;;;;;;;4.38;100.00;98816.28;6037114;23;20026;-89
2023/01/10 02:44:37;;;;;;;0.10;0.10;;;;;;;4.41;100.00;98815.41;6037627;23;20030;-90
2023/01/10 02:47:03;;;;;;;0.00;0.00;;;;;;;4.42;100.00;98816.97;6039252;23;20106;-89
2023/01/10 02:49:29;;;;;;;0.10;0.10;;;;;;;4.38;100.00;98832.75;6012888;23;20507;-89
2023/01/10 02:51:55;;;;;;;0.03;0.03;;;;;;;4.40;100.00;98833.13;6037249;23;20033;-90
2023/01/10 02:54:24;;;;;;;0.25;0.25;;;;;;;4.35;100.00;98808.91;6038970;23;20050;-89
2023/01/10 02:57:05;;;;;;;0.20;0.20;;;;;;;4.37;100.00;98813.97;6060981;23;20014;-90
2023/01/10 02:59:55;;;;;;;0.10;0.10;;;;;;;4.43;100.00;98832.25;6061875;23;20478;-89
2023/01/10 03:02:27;;;;;;;1.10;0.63;;;;;;;4.44;100.00;98830.28;6078225;23;20018;-89
2023/01/10 03:05:17;;;;;;;0.03;0.03;;;;;;;4.45;100.00;98832.59;6010146;23;1348284;-90
2023/01/10 03:07:59;;;;;;;0.43;0.40;;;;;;;4.45;100.00;98829.84;6066357;23;20046;-89
2023/01/10 03:10:29;;;;;;;0.20;0.20;;;;;;;4.44;100.00;98828.31;6067575;23;20041;-90
2023/01/10 03:13:00;;;;;;;0.00;0.00;;;;;;;4.47;100.00;98832.97;6019102;23;20019;-90
2023/01/10 03:15:30;;;;;;;1.27;1.17;;;;;;;4.41;100.00;98815.41;6043186;23;20086;-89
2023/01/10 03:18:01;;;;;;;0.10;0.10;;;;;;;4.47;100.00;98824.72;6045551;23;20085;-89
2023/01/10 03:20:29;;;;;;;0.13;0.13;;;;;;;4.34;100.00;98809.31;6066477;23;20042;-90
2023/01/10 03:22:55;;;;;;;0.43;0.20;;;;;;;4.44;100.00;98822.06;6044135;23;20010;-89
2023/01/10 03:25:22;;;;;;;0.10;0.10;;;;;;;4.33;100.00;98805.03;6018669;23;20041;-89
2023/01/10 03:27:59;;;;;;;0.00;0.00;;;;;;;4.39;100.00;98812.34;6064043;23;20154;-89
2023/01/10 03:30:26;;;;;;;0.10;0.10;;;;;;;4.47;100.00;98797.25;6044564;23;20019;-92
2023/01/10 03:32:52;;;;;;;0.15;0.15;;;;;;;4.46;100.00;98814.16;6041651;23;20042;-89
2023/01/10 03:35:19;;;;;;;0.15;0.15;;;;;;;4.48;100.00;98831.75;6044006;23;20022;-91
2023/01/10 03:37:57;;;;;;;0.22;0.22;;;;;;;4.46;100.00;98814.94;6043616;23;20387;-90
2023/01/10 03:40:37;;;;;;;0.32;0.30;;;;;;;4.44;100.00;98825.56;6020169;23;20030;-89
2023/01/10 03:46:06;;;;;;;0.28;0.28;;;;;;;4.43;100.00;98829.50;6071193;23;20010;-90
2023/01/10 03:48:36;;;;;;;0.00;0.00;;;;;;;4.40;100.00;98824.09;6021039;23;20006;-90
2023/01/10 03:51:03;;;;;;;0.10;0.10;;;;;;;4.47;100.00;98830.22;6042016;23;20014;-90
2023/01/10 03:53:30;;;;;;;0.10;0.10;;;;;;;4.40;100.00;98819.38;6067247;23;20025;-90
2023/01/10 03:55:56;;;;;;;0.00;0.00;;;;;;;4.42;100.00;98846.41;6019949;23;20026;-90
2023/01/10 03:58:21;;;;;;;0.00;0.00;;;;;;;4.44;100.00;98847.53;6019476;23;20013;-90
2023/01/10 04:00:48;;;;;;;0.00;0.00;;;;;;;4.44;100.00;98860.50;6020036;23;20022;-89
2023/01/10 04:03:14;;;;;;;0.73;0.70;;;;;;;4.27;100.00;98834.16;6029609;23;20011;-91
2023/01/10 04:05:40;;;;;;;0.20;0.20;;;;;;;4.45;100.00;98854.56;6009170;23;20023;-90
2023/01/10 04:08:06;;;;;;;0.10;0.10;;;;;;;4.43;100.00;98859.72;6011040;23;20031;-91
2023/01/10 04:10:31;;;;;;;0.25;0.25;;;;;;;4.21;100.00;98834.66;6009684;23;20015;-89
2023/01/10 04:13:01;;;;;;;0.30;0.30;;;;;;;4.34;100.00;98850.50;6010387;23;20015;-90
2023/01/10 04:15:27;;;;;;;0.00;0.00;;;;;;;4.42;100.00;98871.88;5986949;23;20016;-89
2023/01/10 04:17:53;;;;;;;0.10;0.10;;;;;;;4.45;100.00;98864.78;6009880;23;20023;-90
2023/01/10 04:20:18;;;;;;;0.65;0.65;;;;;;;4.47;100.00;98890.63;6033061;23;20011;-90
2023/01/10 04:22:44;;;;;;;0.00;0.00;;;;;;;4.40;100.00;98874.31;5986329;23;20023;-90
2023/01/10 04:25:10;;;;;;;0.00;0.00;;;;;;;4.39;100.00;98889.22;6009794;23;20015;-90
2023/01/10 04:27:35;;;;;;;0.10;0.10;;;;;;;4.44;100.00;98891.47;6010166;23;20030;-89
2023/01/10 04:30:01;;;;;;;0.05;0.05;;;;;;;4.41;100.00;98891.56;6009753;23;20019;-91
2023/01/10 04:32:26;;;;;;;0.03;0.03;;;;;;;4.45;100.00;98887.50;6009262;23;20019;-89
2023/01/10 04:34:52;;;;;;;0.05;0.05;;;;;;;4.42;100.00;98909.56;6008389;23;20026;-90
2023/01/10 04:37:18;;;;;;;0.30;0.30;;;;;;;4.43;100.00;98917.38;5985896;23;20053;-90
2023/01/10 04:39:44;;;;;;;0.00;0.00;;;;;;;4.26;100.00;98874.56;6009433;23;20007;-90
2023/01/10 04:42:10;;;;;;;0.90;0.52;;;;;;;4.41;100.00;98892.28;6009267;23;20016;-90
2023/01/10 04:44:35;;;;;;;0.20;0.20;;;;;;;4.43;100.00;98905.63;6033867;23;20444;-91
2023/01/10 04:47:01;;;;;;;0.80;0.32;;;;;;;4.40;100.00;98900.97;6010512;23;20019;-90
2023/01/10 04:49:26;;;;;;;0.80;0.80;;;;;;;4.30;100.00;98883.50;6009241;23;20011;-90
2023/01/10 04:51:52;;;;;;;0.20;0.20;;;;;;;4.39;100.00;98922.16;5986872;23;20046;-89
2023/01/10 04:54:21;;;;;;;0.00;0.00;;;;;;;4.40;100.00;98929.22;6009244;23;20090;-91
2023/01/10 04:56:47;;;;;;;0.20;0.20;;;;;;;4.39;100.00;98943.34;6033910;23;20045;-91
2023/01/10 04:59:13;;;;;;;0.10;0.10;;;;;;;4.32;100.00;98933.28;5986042;23;20442;-90
2023/01/10 05:01:39;;;;;;;0.43;0.43;;;;;;;4.36;100.00;98952.44;5985138;23;20026;-90
2023/01/10 05:04:05;;;;;;;0.35;0.35;;;;;;;4.39;100.00;98965.31;6009170;23;20020;-90
2023/01/10 05:06:31;;;;;;;0.00;0.00;;;;;;;4.40;100.00;98973.16;6010650;23;20099;-90
2023/01/10 05:08:56;;;;;;;0.00;0.00;;;;;;;4.40;100.00;98973.16;5985653;23;20031;-90
2023/01/10 05:11:22;;;;;;;0.13;0.13;;;;;;;4.39;100.00;99004.53;6008943;23;20008;-91
2023/01/10 05:13:48;;;;;;;0.20;0.20;;;;;;;4.30;100.00;98971.34;6008359;23;20071;-90
2023/01/10 05:16:14;;;;;;;0.05;0.05;;;;;;;4.35;100.00;98992.84;5988088;23;20022;-90
2023/01/10 05:18:39;;;;;;;0.20;0.20;;;;;;;4.34;100.00;98979.53;6007426;23;20143;-91
2023/01/10 05:21:07;;;;;;;0.10;0.10;;;;;;;4.35;100.00;98975.59;5986313;23;20472;-90
2023/01/10 05:23:33;;;;;;;0.73;0.52;;;;;;;4.33;100.00;98984.22;5986374;23;20027;-89
2023/01/10 05:26:07;;;;;;;0.10;0.10;;;;;;;4.34;100.00;98985.00;5986050;23;20015;-91
2023/01/10 05:28:32;;;;;;;0.00;0.00;;;;;;;4.13;100.00;98953.22;5987540;23;20429;-91
2023/01/10 05:30:58;;;;;;;0.08;0.08;;;;;;;4.29;100.00;99002.00;6007848;23;20099;-89
2023/01/10 05:33:24;;;;;;;0.73;0.73;;;;;;;4.27;100.00;99002.41;6009480;23;20007;-91
2023/01/10 05:35:49;;;;;;;0.80;0.52;;;;;;;4.31;100.00;99005.84;5985726;23;20012;-89
2023/01/10 05:38:15;;;;;;;0.05;0.05;;;;;;;4.22;100.00;98983.66;6033032;23;20016;-90
2023/01/10 05:40:40;;;;;;;0.00;0.00;;;;;;;4.29;100.00;99012.97;6011467;23;20098;-91
2023/01/10 05:43:06;;;;;;;0.00;0.00;;;;;;;4.26;100.00;99013.78;5988976;23;20102;-91
2023/01/10 05:45:31;;;;;;;0.00;0.00;;;;;;;4.25;100.00;99018.50;6012169;23;20003;-91
2023/01/10 05:47:57;;;;;;;0.00;0.00;;;;;;;4.15;100.00;99011.25;5990045;23;20511;-90
2023/01/10 05:50:22;;;;;;;0.00;0.00;;;;;;;4.25;100.00;99025.97;6012760;23;20036;-90
2023/01/10 05:52:48;;;;;;;0.35;0.35;;;;;;;4.25;100.00;99050.69;5989086;23;20043;-91
2023/01/10 05:55:14;;;;;;;0.00;0.00;;;;;;;4.24;100.00;99063.63;5988481;23;20015;-90
2023/01/10 05:57:39;;;;;;;0.00;0.00;;;;;;;4.23;100.00;99062.06;5988787;23;20019;-90
2023/01/10 06:00:05;;;;;;;0.20;0.20;;;;;;;4.22;100.00;99057.78;6013234;23;20043;-91
2023/01/10 06:02:37;;;;;;;0.00;0.00;;;;;;;4.01;100.00;99038.91;6036615;23;20171;-91
2023/01/10 06:05:02;;;;;;;0.00;0.00;;;;;;;4.20;100.00;99087.63;6045757;23;20464;-92
2023/01/10 06:07:28;;;;;;;0.08;0.05;;;;;;;4.18;100.00;99066.06;6042586;23;20426;-92
2023/01/10 06:09:54;;;;;;;0.10;0.10;;;;;;;4.07;100.00;99053.72;6018926;23;20125;-90
2023/01/10 06:12:19;;;;;;;0.05;0.05;;;;;;;4.16;100.00;99075.94;6068695;23;20011;-92
2023/01/10 06:14:45;;;;;;;0.10;0.10;;;;;;;4.12;100.00;99078.72;6043548;23;20101;-91
2023/01/10 06:17:11;;;;;;;0.15;0.15;;;;;;;4.18;100.00;99093.50;6043633;23;20074;-92
2023/01/10 06:19:36;;;;;;;0.38;0.32;;;;;;;4.17;100.00;99091.19;6040861;23;20011;-90
2023/01/10 06:22:03;;;;;;;0.08;0.08;;;;;;;4.17;100.00;99093.91;6069349;23;20065;-91
2023/01/10 06:24:28;;;;;;;0.15;0.15;;;;;;;4.07;100.00;99083.91;6021035;23;20022;-91
2023/01/10 06:26:54;;;;;;;0.00;0.00;;;;;;;4.14;100.00;99097.50;6045594;23;20021;-92
2023/01/10 06:29:20;;;;;;;0.00;0.00;;;;;;;4.12;100.00;99097.94;6069547;23;20089;-91
2023/01/10 06:31:45;;;;;;;0.30;0.30;;;;;;;4.18;100.00;99114.69;6044113;23;20105;-91
2023/01/10 06:34:11;;;;;;;0.38;0.38;;;;;;;4.16;100.00;99133.56;6069373;23;20081;-90
2023/01/10 06:36:36;;;;;;;1.25;0.80;;;;;;;4.03;100.00;99116.09;6045463;23;20010;-90
2023/01/10 06:39:02;;;;;;;0.10;0.10;;;;;;;4.07;100.00;99122.31;5997466;23;20022;-91
2023/01/10 06:41:28;;;;;;;2.67;1.17;;;;;;;4.06;100.00;99134.47;6066922;23;20443;-91
2023/01/10 06:43:53;;;;;;;0.00;0.00;;;;;;;4.09;100.00;99128.16;6018898;23;20010;-91
2023/01/10 06:46:19;;;;;;;0.00;0.00;;;;;;;4.06;100.00;99151.72;6044270;23;20011;-91
2023/01/10 06:48:45;;;;;;;1.08;1.08;;;;;;;4.07;100.00;99147.03;6019935;23;20420;-91
2023/01/10 06:51:12;;;;;;;0.10;0.10;;;;;;;4.10;100.00;99160.69;6019673;23;20022;-90
2023/01/10 06:53:38;;;;;;;0.28;0.28;;;;;;;4.10;100.00;99159.91;6043544;23;20011;-91
2023/01/10 06:56:04;;;;;;;0.00;0.00;;;;;;;4.05;100.00;99138.41;6044065;23;20010;-92
2023/01/10 06:58:31;;;;;;;0.30;0.30;;;;;;;4.12;100.00;99182.25;6044036;23;20021;-92
2023/01/10 07:00:57;;;;;;;0.08;0.08;;;;;;;4.09;100.00;99170.09;6020314;23;20037;-92
2023/01/10 07:03:22;;;;;;;0.00;0.00;;;;;;;4.13;100.00;99186.50;6044338;23;20014;-94
2023/01/10 07:05:48;;;;;;;0.13;0.13;;;;;;;4.05;100.00;99185.06;6066499;23;20014;-91
2023/01/10 07:08:14;;;;;;;0.00;0.00;;;;;;;4.13;100.00;99194.75;6041310;23;20022;-92
2023/01/10 07:10:40;;;;;;;0.70;0.68;;;;;;;4.09;100.00;99210.50;6037866;23;20014;-92
2023/01/10 07:13:06;;;;;;;0.08;0.08;;;;;;;4.13;100.00;99211.22;6040136;23;20049;-92
2023/01/10 07:15:32;;;;;;;0.20;0.20;;;;;;;4.15;100.00;99214.34;6040701;23;20046;-92
2023/01/10 07:17:58;;;;;;;0.00;0.00;;;;;;;4.13;100.00;99216.72;6088488;23;20010;-91
2023/01/10 07:20:23;;;;;;;0.32;0.32;;;;;;;3.98;100.00;99193.41;6016750;23;20018;-93
2023/01/10 07:22:57;;;;;;;0.57;0.57;;;;;;;4.14;100.00;99240.22;6064577;23;20015;-91
2023/01/10 07:25:24;;;;;;;0.45;0.43;;;;;;;4.17;100.00;99240.19;6017182;23;20298;-92
2023/01/10 07:27:49;;;;;;;0.65;0.65;;;;;;;4.14;100.00;99223.75;6040630;23;20025;-91
2023/01/10 07:30:15;;;;;;;1.17;1.00;;;;;;;4.21;100.00;99227.19;6089217;23;20563;-92
2023/01/10 07:32:40;;;;;;;0.38;0.38;;;;;;;4.23;100.00;99237.75;6019674;23;20010;-90
2023/01/10 07:35:06;;;;;;;0.38;0.20;;;;;;;4.29;100.00;99269.03;6067659;23;20415;-92
2023/01/10 07:37:33;;;;;;;0.88;0.88;;;;;;;4.27;100.00;99249.47;6046054;23;20002;-91
2023/01/10 07:39:58;;;;;;;0.10;0.10;;;;;;;4.29;100.00;99255.31;6045658;23;20494;-91
2023/01/10 07:42:24;;;;;;;0.40;0.40;;;;;;;4.13;100.00;99233.19;6045917;23;20014;-92
2023/01/10 07:44:49;;;;;;;0.00;0.00;;;;;;;4.27;100.00;99260.44;6021299;23;20014;-91
2023/01/10 07:47:16;;;;;;;0.20;0.20;;;;;;;4.15;100.00;99241.78;6069743;23;19999;-92
2023/01/10 07:49:42;;;;;;;0.68;0.68;;;;;;;4.26;100.00;99269.88;6044160;23;20011;-91
2023/01/10 07:52:08;;;;;;;0.10;0.10;;;;;;;4.30;100.00;99270.59;6045895;23;20022;-91
2023/01/10 07:54:34;;;;;;;0.57;0.57;;;;;;;4.34;100.00;99296.03;6068950;23;20006;-92
2023/01/10 07:57:01;;;;;;;0.68;0.68;;;;;;;4.35;100.00;99288.56;6045141;23;20022;-91
2023/01/10 07:59:26;;;;;;;0.10;0.10;;;;;;;4.28;100.00;99283.19;6044095;23;20017;-91
2023/01/10 08:01:52;;;;;;;0.38;0.22;;;;;;;4.20;100.00;99277.81;6044793;23;20002;-91
2023/01/10 08:04:19;;;;;;;0.50;0.28;;;;;;;4.38;100.00;99279.50;6044129;23;20021;-91
2023/01/10 08:06:44;;;;;;;0.20;0.20;;;;;;;4.37;100.00;99303.44;6069203;23;20014;-91
2023/01/10 08:09:10;;;;;;;0.10;0.10;;;;;;;4.41;100.00;99314.41;6044845;23;20014;-91
2023/01/10 08:11:36;;;;;;;0.35;0.35;;;;;;;4.37;100.00;99308.94;6045299;23;20022;-92
2023/01/10 08:14:01;;;;;;;0.20;0.20;;;;;;;4.42;100.00;99344.16;6021501;23;20029;-90
2023/01/10 08:16:27;;;;;;;1.17;1.05;;;;;;;4.45;100.00;99337.09;6045475;23;20022;-92
2023/01/10 08:18:52;;;;;;;0.00;0.00;;;;;;;4.43;100.00;99334.75;6067744;23;20122;-92
2023/01/10 08:21:18;;;;;;;0.45;0.45;;;;;;;4.33;100.00;99321.16;6022016;23;20359;-92
2023/01/10 08:23:43;;;;;;;0.10;0.10;;;;;;;4.45;100.00;99337.09;6021247;23;20014;-91
2023/01/10 08:26:09;;;;;;;0.08;0.08;;;;;;;4.45;100.00;99354.31;6069438;23;20016;-92
2023/01/10 08:28:35;;;;;;;0.38;0.38;;;;;;;4.41;100.00;99334.38;6068676;23;20038;-91
2023/01/10 08:31:08;;;;;;;1.20;0.60;;;;;;;4.49;100.00;99357.06;6069011;23;20014;-92
2023/01/10 08:33:35;;;;;;;0.45;0.45;;;;;;;4.42;100.00;99346.91;6044850;23;20443;-92
2023/01/10 08:36:01;;;;;;;0.10;0.10;;;;;;;4.51;100.00;99357.41;6068031;23;20502;-91
2023/01/10 08:38:27;;;;;;;0.10;0.10;;;;;;;4.53;100.00;99375.00;6044667;23;20046;-92
2023/01/10 08:40:55;;;;;;;0.00;0.00;;;;;;;4.41;100.00;99361.81;6044067;23;19998;-92
2023/01/10 08:43:21;;;;;;;0.00;0.00;;;;;;;4.43;100.00;99373.19;6020807;23;20354;-90
2023/01/10 08:45:48;;;;;;;0.25;0.25;;;;;;;4.53;100.00;99388.75;6043810;23;20006;-91
2023/01/10 08:48:14;;;;;;;0.43;0.43;;;;;;;4.35;100.00;99376.44;6021338;23;20062;-93
2023/01/10 08:50:39;;;;;;;1.30;1.20;;;;;;;4.50;100.00;99395.06;6067306;23;20026;-93
2023/01/10 08:53:12;;;;;;;0.20;0.20;;;;;;;4.45;100.00;99373.53;6064628;23;20455;-91
2023/01/10 08:55:51;;;;;;;0.10;0.10;;;;;;;4.41;100.00;99385.78;6070783;23;20062;-93
2023/01/10 08:58:17;;;;;;;0.10;0.10;;;;;;;4.45;100.00;99398.25;6043801;23;20010;-92
2023/01/10 09:00:44;;;;;;;0.20;0.20;;;;;;;4.37;100.00;99374.06;6043836;23;20010;-95
2023/01/10 09:03:09;;;;;;;0.00;0.00;;;;;;;4.43;100.00;99400.66;6021815;23;20093;-94
2023/01/10 09:05:35;;;;;;;0.20;0.20;;;;;;;4.55;100.00;99424.84;6043581;23;20033;-93
2023/01/10 09:08:02;;;;;;;0.20;0.20;;;;;;;4.62;100.00;99429.44;6044408;23;20018;-92
2023/01/10 09:10:28;;;;;;;0.25;0.25;;;;;;;4.63;100.00;99422.78;6020868;23;20038;-95
2023/01/10 09:12:56;;;;;;;0.10;0.10;;;;;;;4.64;100.00;99427.09;6021876;23;20022;-94
2023/01/10 09:15:24;;;;;;;0.15;0.15;;;;;;;4.35;100.00;99382.72;6046620;23;20097;-95
2023/01/10 09:17:55;;;;;;;0.40;0.40;;;;;;;4.41;100.00;99394.03;6023970;23;20022;-94
2023/01/10 09:20:22;;;;;;;0.00;0.00;;;;;;;4.58;100.00;99429.50;6024083;23;20085;-93
2023/01/10 09:22:48;;;;;;;0.30;0.30;;;;;;;4.66;100.00;99447.44;6023194;23;20041;-93
2023/01/10 09:25:14;;;;;;;0.00;0.00;;;;;;;4.54;100.00;99408.75;6022003;23;20018;-92
2023/01/10 09:27:39;;;;;;;0.30;0.30;;;;;;;4.54;100.00;99431.50;6093491;23;20010;-91
2023/01/10 09:30:08;;;;;;;0.00;0.00;;;;;;;4.49;100.00;99409.22;6023699;23;20021;-94
2023/01/10 09:32:34;;;;;;;0.00;0.00;;;;;;;4.60;100.00;99448.31;6023480;23;20014;-92
2023/01/10 09:35:00;;;;;;;0.00;0.00;;;;;;;4.72;100.00;99504.69;6094181;23;20013;-93
2023/01/10 09:37:25;;;;;;;0.10;0.10;;;;;;;4.63;100.00;99436.50;6070829;23;20443;-94
2023/01/10 09:39:51;;;;;;;0.10;0.10;;;;;;;4.68;100.00;99445.09;6045757;23;20010;-93
2023/01/10 09:42:29;;;;;;;0.10;0.10;;;;;;;4.82;100.00;99465.31;6094178;23;20097;-94
2023/01/10 09:45:11;;;;;;;1.15;1.08;;;;;;;4.58;100.00;99424.00;6046277;23;20046;-94
2023/01/10 09:47:52;;;;;;;0.30;0.30;;;;;;;4.61;100.00;99439.66;6069827;23;20073;-95
2023/01/10 09:50:53;;;;;;;0.77;0.45;;;;;;;4.77;100.00;99463.81;6069061;23;20056;-94
2023/01/10 09:53:24;;;;;;;0.10;0.10;;;;;;;4.84;100.00;99473.94;6089892;23;20033;-90
2023/01/10 09:55:55;;;;;;;0.10;0.10;;;;;;;4.69;100.00;99462.34;6045967;23;20081;-95
2023/01/10 09:58:30;;;;;;;0.55;0.35;;;;;;;4.63;100.00;99445.53;6022402;23;20011;-91
2023/01/10 10:00:59;;;;;;;0.20;0.20;;;;;;;4.88;100.00;99496.66;6069290;23;20046;-93
2023/01/10 10:03:35;;;;;;;0.20;0.20;;;;;;;4.88;100.00;99485.66;6058621;23;20010;-90
2023/01/10 10:14:41;;;;;;;0.20;0.20;;;;;;;4.73;100.00;99468.56;6038460;23;20056;-93
2023/01/10 10:17:13;;;;;;;0.20;0.20;;;;;;;4.94;100.00;99503.22;5990198;23;20480;-94
2023/01/10 10:19:44;;;;;;;0.10;0.10;;;;;;;4.94;100.00;99497.72;5988436;23;20023;-93
2023/01/10 10:22:19;;;;;;;0.03;0.03;;;;;;;4.94;100.00;99497.72;5989328;23;20015;-92
2023/01/10 10:25:00;;;;;;;0.05;0.05;;;;;;;4.95;100.00;99480.84;5965164;23;20067;-92
2023/01/10 10:28:12;;;;;;;0.00;0.00;;;;;;;4.81;100.00;99470.03;5966863;23;20075;-93
2023/01/10 10:31:13;;;;;;;0.20;0.20;;;;;;;4.97;100.00;99494.19;5980800;23;20399;-92
2023/01/10 10:33:39;;;;;;;0.30;0.30;;;;;;;4.98;100.00;99502.00;6007668;23;20015;-91
2023/01/10 10:36:13;;;;;;;0.00;0.00;;;;;;;4.95;100.00;99500.09;5988548;23;20029;-92
2023/01/10 10:38:43;;;;;;;0.10;0.10;;;;;;;4.84;100.00;99465.69;5966709;23;20102;-93
2023/01/10 10:41:20;;;;;;;0.00;0.00;;;;;;;4.92;100.00;99486.38;5989154;23;20027;-93
2023/01/10 10:43:46;;;;;;;0.93;0.45;;;;;;;4.85;100.00;99484.53;5966427;23;20034;-95
2023/01/10 10:46:14;;;;;;;0.10;0.10;;;;;;;5.03;100.00;99506.25;5978754;23;20010;-93
2023/01/10 10:48:49;;;;;;;0.20;0.20;;;;;;;5.06;100.00;99505.44;5976377;23;20019;-94
2023/01/10 10:51:33;;;;;;;0.08;0.08;;;;;;;5.04;100.00;99502.34;5994466;23;20038;-94
2023/01/10 10:54:00;;;;;;;2.05;0.40;;;;;;;5.06;100.00;99516.44;5989812;23;20028;-92
2023/01/10 10:56:26;;;;;;;0.10;0.10;;;;;;;4.94;100.00;99497.72;5966883;23;20019;-91
2023/01/10 10:58:54;;;;;;;0.10;0.10;;;;;;;5.06;100.00;99516.44;5988793;23;20015;-91
2023/01/10 11:01:21;;;;;;;0.10;0.10;;;;;;;5.00;100.00;99494.13;5995532;23;20018;-92
2023/01/10 11:03:48;;;;;;;1.17;0.82;;;;;;;5.10;100.00;99522.66;6013740;23;20061;-93
2023/01/10 11:06:15;;;;;;;0.00;0.00;;;;;;;4.89;100.00;99482.50;6018846;23;20011;-92
2023/01/10 11:08:43;;;;;;;0.10;0.10;;;;;;;5.04;100.00;99497.63;5993198;23;20014;-93
2023/01/10 11:11:31;;;;;;;1.90;0.52;;;;;;;4.92;100.00;99494.63;5993500;23;20006;-93
2023/01/10 11:14:01;;;;;;;0.28;0.28;;;;;;;4.95;100.00;99499.31;6006984;23;20018;-94
2023/01/10 11:16:35;;;;;;;0.20;0.20;;;;;;;5.09;100.00;99529.38;6072160;23;20018;-96
2023/01/10 11:19:20;;;;;;;0.10;0.10;;;;;;;5.22;100.00;99535.84;6024101;23;20015;-94
2023/01/10 11:21:52;;;;;;;0.35;0.35;;;;;;;5.12;100.00;99545.03;6049067;23;20432;-93
2023/01/10 11:24:30;;;;;;;0.28;0.28;;;;;;;5.13;100.00;99527.34;6025184;23;20384;-94
2023/01/10 11:26:57;;;;;;;0.30;0.30;;;;;;;5.01;100.00;99516.91;6049087;23;20018;-94
2023/01/10 11:29:43;;;;;;;0.20;0.20;;;;;;;5.08;100.00;99527.81;6024867;23;20006;-94
2023/01/10 11:32:14;;;;;;;0.17;0.17;;;;;;;5.11;100.00;99527.75;6024813;23;20018;-92
2023/01/10 11:34:41;;;;;;;0.00;0.00;;;;;;;5.04;100.00;99525.09;6024060;23;20041;-95
2023/01/10 11:37:15;;;;;;;0.00;0.00;;;;;;;5.27;100.00;99560.16;6025170;23;20022;-95
2023/01/10 11:39:41;;;;;;;0.28;0.28;;;;;;;5.08;100.00;99536.06;6048511;23;20015;-93
2023/01/10 11:42:29;;;;;;;0.00;0.00;;;;;;;5.29;100.00;99576.25;6048421;23;20002;-94
2023/01/10 11:45:19;;;;;;;0.30;0.30;;;;;;;5.32;100.00;99592.69;6048279;23;20010;-94
2023/01/10 11:47:49;;;;;;;0.10;0.10;;;;;;;5.33;100.00;99572.25;6048475;23;20075;-94
2023/01/10 11:50:21;;;;;;;0.40;0.40;;;;;;;5.12;100.00;99539.53;6047856;23;20463;-95
2023/01/10 11:52:47;;;;;;;0.60;0.60;;;;;;;5.15;100.00;99544.19;6024061;23;20333;-93
2023/01/10 11:55:18;;;;;;;0.30;0.30;;;;;;;5.24;100.00;99560.97;6045201;23;20073;-92
2023/01/10 11:57:44;;;;;;;0.45;0.45;;;;;;;5.26;100.00;99566.09;6023042;23;20471;-93
2023/01/10 12:00:11;;;;;;;0.45;0.45;;;;;;;5.38;100.00;99588.28;6045004;23;20013;-92
2023/01/10 12:02:41;;;;;;;1.10;1.05;;;;;;;5.40;100.00;99580.41;6047537;23;20018;-93